Terminal Aerodrome Forecast
Issued by NWS

Home | Current Version | Previous Version | Text Only | Print | Product List | Glossary On
Versions: 1 2 3 4 5 6 7 8 9 10 11 12
165
FTUS43 KICT 101739
TAFSLN
TAF
KSLN 101739Z 1018/1118 17014G22KT P6SM BKN040
     FM101900 17014G22KT P6SM SCT250
     FM110600 17013KT P6SM SCT025 BKN250
     FM110800 17015KT P6SM SCT015 BKN025
     FM111000 19012KT 4SM BR OVC015
     FM111600 20010KT 3SM BR OVC015=

USA.gov is the U.S. government's official web portal to all federal, state and local government web resources and services.